sensor_id;sensor_type;location;lat;lon;timestamp;P1;durP1;ratioP1;P2;durP2;ratioP2
78858;SDS011;68210;52.032;4.634;2023-07-20T00:00:34;4.80;;;2.58;;
78858;SDS011;68210;52.032;4.634;2023-07-20T00:02:35;3.92;;;1.90;;
78858;SDS011;68210;52.032;4.634;2023-07-20T00:04:35;5.22;;;2.28;;
78858;SDS011;68210;52.032;4.634;2023-07-20T00:06:36;6.18;;;3.53;;
78858;SDS011;68210;52.032;4.634;2023-07-20T00:08:40;7.57;;;5.03;;
78858;SDS011;68210;52.032;4.634;2023-07-20T00:10:41;5.43;;;3.33;;
78858;SDS011;68210;52.032;4.634;2023-07-20T00:12:41;6.45;;;3.03;;
78858;SDS011;68210;52.032;4.634;2023-07-20T00:14:47;6.82;;;4.82;;
78858;SDS011;68210;52.032;4.634;2023-07-20T00:16:47;9.07;;;5.95;;
78858;SDS011;68210;52.032;4.634;2023-07-20T00:18:55;8.18;;;4.68;;
78858;SDS011;68210;52.032;4.634;2023-07-20T00:20:55;6.05;;;3.40;;
78858;SDS011;68210;52.032;4.634;2023-07-20T00:22:56;5.78;;;4.13;;
78858;SDS011;68210;52.032;4.634;2023-07-20T00:24:58;8.45;;;4.50;;
78858;SDS011;68210;52.032;4.634;2023-07-20T00:26:58;12.13;;;5.57;;
78858;SDS011;68210;52.032;4.634;2023-07-20T00:28:58;8.45;;;5.97;;
78858;SDS011;68210;52.032;4.634;2023-07-20T00:30:59;6.30;;;3.45;;
78858;SDS011;68210;52.032;4.634;2023-07-20T00:33:00;5.38;;;3.83;;
78858;SDS011;68210;52.032;4.634;2023-07-20T00:35:00;8.80;;;4.32;;
78858;SDS011;68210;52.032;4.634;2023-07-20T00:37:01;5.38;;;3.70;;
78858;SDS011;68210;52.032;4.634;2023-07-20T00:39:02;5.55;;;2.65;;
78858;SDS011;68210;52.032;4.634;2023-07-20T00:41:03;5.82;;;2.20;;
78858;SDS011;68210;52.032;4.634;2023-07-20T00:43:03;3.13;;;2.20;;
78858;SDS011;68210;52.032;4.634;2023-07-20T00:45:04;2.42;;;1.52;;
78858;SDS011;68210;52.032;4.634;2023-07-20T00:47:05;3.40;;;1.20;;
78858;SDS011;68210;52.032;4.634;2023-07-20T00:49:06;4.07;;;1.63;;
78858;SDS011;68210;52.032;4.634;2023-07-20T00:51:06;2.20;;;1.35;;
78858;SDS011;68210;52.032;4.634;2023-07-20T00:53:07;1.90;;;1.20;;
78858;SDS011;68210;52.032;4.634;2023-07-20T00:55:08;2.60;;;1.80;;
78858;SDS011;68210;52.032;4.634;2023-07-20T00:57:09;3.90;;;1.77;;
78858;SDS011;68210;52.032;4.634;2023-07-20T00:59:10;4.63;;;1.30;;
78858;SDS011;68210;52.032;4.634;2023-07-20T01:01:11;4.15;;;1.20;;
78858;SDS011;68210;52.032;4.634;2023-07-20T01:03:11;1.90;;;1.10;;
78858;SDS011;68210;52.032;4.634;2023-07-20T01:05:12;1.80;;;1.30;;
78858;SDS011;68210;52.032;4.634;2023-07-20T01:09:48;4.80;;;1.50;;
78858;SDS011;68210;52.032;4.634;2023-07-20T01:14:10;1.80;;;1.13;;
78858;SDS011;68210;52.032;4.634;2023-07-20T01:16:13;2.67;;;1.35;;
78858;SDS011;68210;52.032;4.634;2023-07-20T01:18:13;2.08;;;1.40;;
78858;SDS011;68210;52.032;4.634;2023-07-20T01:20:14;2.38;;;1.00;;
78858;SDS011;68210;52.032;4.634;2023-07-20T01:31:33;3.63;;;1.30;;
78858;SDS011;68210;52.032;4.634;2023-07-20T01:33:36;1.65;;;1.05;;
78858;SDS011;68210;52.032;4.634;2023-07-20T01:35:38;1.25;;;0.73;;
78858;SDS011;68210;52.032;4.634;2023-07-20T01:37:43;4.20;;;1.35;;
78858;SDS011;68210;52.032;4.634;2023-07-20T01:39:46;3.15;;;1.25;;
78858;SDS011;68210;52.032;4.634;2023-07-20T01:41:46;2.67;;;1.17;;
78858;SDS011;68210;52.032;4.634;2023-07-20T01:43:47;2.92;;;1.00;;
78858;SDS011;68210;52.032;4.634;2023-07-20T01:45:47;2.53;;;1.65;;
78858;SDS011;68210;52.032;4.634;2023-07-20T01:47:48;1.60;;;0.98;;
78858;SDS011;68210;52.032;4.634;2023-07-20T01:49:48;2.45;;;1.10;;
78858;SDS011;68210;52.032;4.634;2023-07-20T01:51:49;2.03;;;0.98;;
78858;SDS011;68210;52.032;4.634;2023-07-20T01:53:49;1.48;;;1.10;;
78858;SDS011;68210;52.032;4.634;2023-07-20T01:55:49;3.25;;;1.20;;
78858;SDS011;68210;52.032;4.634;2023-07-20T01:57:54;1.10;;;0.90;;
78858;SDS011;68210;52.032;4.634;2023-07-20T01:59:55;1.85;;;1.00;;
78858;SDS011;68210;52.032;4.634;2023-07-20T02:01:55;2.75;;;1.55;;
78858;SDS011;68210;52.032;4.634;2023-07-20T02:03:56;3.03;;;1.40;;
78858;SDS011;68210;52.032;4.634;2023-07-20T02:05:56;2.50;;;1.30;;
78858;SDS011;68210;52.032;4.634;2023-07-20T02:07:57;1.67;;;1.02;;
78858;SDS011;68210;52.032;4.634;2023-07-20T02:09:57;1.83;;;1.05;;
78858;SDS011;68210;52.032;4.634;2023-07-20T02:11:57;1.85;;;1.23;;
78858;SDS011;68210;52.032;4.634;2023-07-20T02:13:58;2.40;;;1.20;;
78858;SDS011;68210;52.032;4.634;2023-07-20T02:15:58;2.15;;;1.20;;
78858;SDS011;68210;52.032;4.634;2023-07-20T02:17:58;1.60;;;1.20;;
78858;SDS011;68210;52.032;4.634;2023-07-20T02:19:59;1.90;;;1.10;;
78858;SDS011;68210;52.032;4.634;2023-07-20T02:21:59;3.60;;;1.20;;
78858;SDS011;68210;52.032;4.634;2023-07-20T02:23:59;2.47;;;0.98;;
78858;SDS011;68210;52.032;4.634;2023-07-20T02:26:00;3.33;;;1.70;;
78858;SDS011;68210;52.032;4.634;2023-07-20T02:28:00;2.05;;;1.23;;
78858;SDS011;68210;52.032;4.634;2023-07-20T02:30:01;2.65;;;1.33;;
78858;SDS011;68210;52.032;4.634;2023-07-20T02:32:02;2.35;;;1.63;;
78858;SDS011;68210;52.032;4.634;2023-07-20T02:34:02;3.63;;;1.65;;
78858;SDS011;68210;52.032;4.634;2023-07-20T02:36:03;4.47;;;1.17;;
78858;SDS011;68210;52.032;4.634;2023-07-20T02:38:03;2.38;;;1.20;;
78858;SDS011;68210;52.032;4.634;2023-07-20T02:40:04;2.92;;;1.38;;
78858;SDS011;68210;52.032;4.634;2023-07-20T02:42:05;3.28;;;1.70;;
78858;SDS011;68210;52.032;4.634;2023-07-20T02:44:06;3.42;;;1.33;;
78858;SDS011;68210;52.032;4.634;2023-07-20T02:46:06;5.38;;;1.73;;
78858;SDS011;68210;52.032;4.634;2023-07-20T02:48:06;3.33;;;1.90;;
78858;SDS011;68210;52.032;4.634;2023-07-20T02:50:08;2.00;;;1.35;;
78858;SDS011;68210;52.032;4.634;2023-07-20T02:52:09;3.25;;;1.23;;
78858;SDS011;68210;52.032;4.634;2023-07-20T02:54:09;2.70;;;1.80;;
78858;SDS011;68210;52.032;4.634;2023-07-20T02:56:09;1.63;;;1.33;;
78858;SDS011;68210;52.032;4.634;2023-07-20T02:58:10;3.65;;;1.60;;
78858;SDS011;68210;52.032;4.634;2023-07-20T03:00:10;2.13;;;1.58;;
78858;SDS011;68210;52.032;4.634;2023-07-20T03:02:15;5.50;;;1.77;;
78858;SDS011;68210;52.032;4.634;2023-07-20T03:04:15;2.53;;;1.70;;
78858;SDS011;68210;52.032;4.634;2023-07-20T03:06:16;2.88;;;1.92;;
78858;SDS011;68210;52.032;4.634;2023-07-20T03:08:17;2.58;;;1.27;;
78858;SDS011;68210;52.032;4.634;2023-07-20T03:10:17;2.90;;;1.70;;
78858;SDS011;68210;52.032;4.634;2023-07-20T03:12:17;4.85;;;1.70;;
78858;SDS011;68210;52.032;4.634;2023-07-20T03:14:18;2.78;;;1.48;;
78858;SDS011;68210;52.032;4.634;2023-07-20T03:16:19;3.90;;;2.47;;
78858;SDS011;68210;52.032;4.634;2023-07-20T03:18:19;3.15;;;2.03;;
78858;SDS011;68210;52.032;4.634;2023-07-20T03:20:20;3.75;;;1.70;;
78858;SDS011;68210;52.032;4.634;2023-07-20T03:22:20;2.47;;;1.67;;
78858;SDS011;68210;52.032;4.634;2023-07-20T03:24:21;3.67;;;1.35;;
78858;SDS011;68210;52.032;4.634;2023-07-20T03:26:23;2.47;;;1.73;;
78858;SDS011;68210;52.032;4.634;2023-07-20T03:28:24;2.08;;;1.60;;
78858;SDS011;68210;52.032;4.634;2023-07-20T03:30:24;3.03;;;1.45;;
78858;SDS011;68210;52.032;4.634;2023-07-20T03:32:25;2.13;;;1.17;;
78858;SDS011;68210;52.032;4.634;2023-07-20T03:34:26;2.17;;;1.00;;
78858;SDS011;68210;52.032;4.634;2023-07-20T03:36:26;3.28;;;1.30;;
78858;SDS011;68210;52.032;4.634;2023-07-20T03:38:26;3.85;;;1.00;;
78858;SDS011;68210;52.032;4.634;2023-07-20T03:40:27;5.55;;;1.40;;
78858;SDS011;68210;52.032;4.634;2023-07-20T03:42:28;3.15;;;1.77;;
78858;SDS011;68210;52.032;4.634;2023-07-20T03:44:28;4.45;;;1.90;;
78858;SDS011;68210;52.032;4.634;2023-07-20T03:46:29;2.05;;;1.50;;
78858;SDS011;68210;52.032;4.634;2023-07-20T03:48:31;3.30;;;1.48;;
78858;SDS011;68210;52.032;4.634;2023-07-20T03:50:31;3.08;;;1.52;;
78858;SDS011;68210;52.032;4.634;2023-07-20T03:52:32;2.05;;;1.52;;
78858;SDS011;68210;52.032;4.634;2023-07-20T03:54:33;2.47;;;1.30;;
78858;SDS011;68210;52.032;4.634;2023-07-20T03:56:33;3.33;;;1.48;;
78858;SDS011;68210;52.032;4.634;2023-07-20T03:58:35;1.83;;;1.23;;
78858;SDS011;68210;52.032;4.634;2023-07-20T04:00:35;3.67;;;1.75;;
78858;SDS011;68210;52.032;4.634;2023-07-20T04:02:36;1.98;;;1.20;;
78858;SDS011;68210;52.032;4.634;2023-07-20T04:04:36;2.90;;;1.35;;
78858;SDS011;68210;52.032;4.634;2023-07-20T04:06:37;2.33;;;1.10;;
78858;SDS011;68210;52.032;4.634;2023-07-20T04:08:38;3.33;;;1.38;;
78858;SDS011;68210;52.032;4.634;2023-07-20T04:10:38;2.72;;;2.05;;
78858;SDS011;68210;52.032;4.634;2023-07-20T04:12:39;3.80;;;1.30;;
78858;SDS011;68210;52.032;4.634;2023-07-20T04:14:39;2.25;;;1.27;;
78858;SDS011;68210;52.032;4.634;2023-07-20T04:16:40;3.13;;;1.20;;
78858;SDS011;68210;52.032;4.634;2023-07-20T04:18:40;1.38;;;0.70;;
78858;SDS011;68210;52.032;4.634;2023-07-20T04:20:41;3.45;;;1.55;;
78858;SDS011;68210;52.032;4.634;2023-07-20T04:22:42;2.28;;;1.30;;
78858;SDS011;68210;52.032;4.634;2023-07-20T04:24:43;2.70;;;1.00;;
78858;SDS011;68210;52.032;4.634;2023-07-20T04:26:43;1.65;;;0.90;;
78858;SDS011;68210;52.032;4.634;2023-07-20T04:28:43;1.13;;;0.80;;
78858;SDS011;68210;52.032;4.634;2023-07-20T04:30:44;3.75;;;1.23;;
78858;SDS011;68210;52.032;4.634;2023-07-20T04:32:44;2.33;;;1.02;;
78858;SDS011;68210;52.032;4.634;2023-07-20T04:34:46;3.15;;;0.95;;
78858;SDS011;68210;52.032;4.634;2023-07-20T04:36:46;2.25;;;0.80;;
78858;SDS011;68210;52.032;4.634;2023-07-20T04:38:47;1.98;;;1.20;;
78858;SDS011;68210;52.032;4.634;2023-07-20T04:40:48;2.08;;;1.10;;
78858;SDS011;68210;52.032;4.634;2023-07-20T04:42:50;1.10;;;0.80;;
78858;SDS011;68210;52.032;4.634;2023-07-20T04:44:50;3.70;;;0.80;;
78858;SDS011;68210;52.032;4.634;2023-07-20T04:46:51;0.85;;;0.73;;
78858;SDS011;68210;52.032;4.634;2023-07-20T04:48:51;1.30;;;0.93;;
78858;SDS011;68210;52.032;4.634;2023-07-20T04:50:52;1.88;;;0.88;;
78858;SDS011;68210;52.032;4.634;2023-07-20T04:52:52;1.65;;;0.82;;
78858;SDS011;68210;52.032;4.634;2023-07-20T04:54:53;3.40;;;1.20;;
78858;SDS011;68210;52.032;4.634;2023-07-20T04:56:53;3.28;;;0.93;;
78858;SDS011;68210;52.032;4.634;2023-07-20T04:58:54;1.48;;;0.68;;
78858;SDS011;68210;52.032;4.634;2023-07-20T05:00:54;1.90;;;0.77;;
78858;SDS011;68210;52.032;4.634;2023-07-20T05:02:55;3.35;;;1.08;;
78858;SDS011;68210;52.032;4.634;2023-07-20T05:04:56;3.40;;;1.20;;
78858;SDS011;68210;52.032;4.634;2023-07-20T05:06:56;2.10;;;0.80;;
78858;SDS011;68210;52.032;4.634;2023-07-20T05:08:57;1.23;;;0.90;;
78858;SDS011;68210;52.032;4.634;2023-07-20T05:10:57;1.98;;;0.82;;
78858;SDS011;68210;52.032;4.634;2023-07-20T05:13:00;2.10;;;1.30;;
78858;SDS011;68210;52.032;4.634;2023-07-20T05:15:00;2.47;;;1.52;;
78858;SDS011;68210;52.032;4.634;2023-07-20T05:17:01;1.52;;;0.88;;
78858;SDS011;68210;52.032;4.634;2023-07-20T05:19:01;2.72;;;0.98;;
78858;SDS011;68210;52.032;4.634;2023-07-20T05:21:02;4.32;;;1.40;;
78858;SDS011;68210;52.032;4.634;2023-07-20T05:23:03;5.45;;;1.33;;
78858;SDS011;68210;52.032;4.634;2023-07-20T05:25:03;9.52;;;1.95;;
78858;SDS011;68210;52.032;4.634;2023-07-20T05:27:04;10.60;;;2.30;;
78858;SDS011;68210;52.032;4.634;2023-07-20T05:29:04;5.57;;;2.10;;
78858;SDS011;68210;52.032;4.634;2023-07-20T05:31:05;5.15;;;1.38;;
78858;SDS011;68210;52.032;4.634;2023-07-20T05:33:06;3.42;;;1.00;;
78858;SDS011;68210;52.032;4.634;2023-07-20T05:35:07;4.05;;;1.10;;
78858;SDS011;68210;52.032;4.634;2023-07-20T05:37:08;4.43;;;1.45;;
78858;SDS011;68210;52.032;4.634;2023-07-20T05:39:09;6.07;;;1.10;;
78858;SDS011;68210;52.032;4.634;2023-07-20T05:41:09;6.32;;;1.15;;
78858;SDS011;68210;52.032;4.634;2023-07-20T05:43:10;2.58;;;0.82;;
78858;SDS011;68210;52.032;4.634;2023-07-20T05:45:12;5.25;;;1.08;;
78858;SDS011;68210;52.032;4.634;2023-07-20T05:47:12;5.20;;;1.48;;
78858;SDS011;68210;52.032;4.634;2023-07-20T05:49:13;4.70;;;1.08;;
78858;SDS011;68210;52.032;4.634;2023-07-20T05:51:13;3.63;;;0.77;;
78858;SDS011;68210;52.032;4.634;2023-07-20T05:53:14;4.25;;;1.02;;
78858;SDS011;68210;52.032;4.634;2023-07-20T05:55:14;1.13;;;0.73;;
78858;SDS011;68210;52.032;4.634;2023-07-20T05:57:15;2.95;;;0.90;;
78858;SDS011;68210;52.032;4.634;2023-07-20T05:59:15;5.35;;;1.02;;
78858;SDS011;68210;52.032;4.634;2023-07-20T06:01:16;3.95;;;1.00;;
78858;SDS011;68210;52.032;4.634;2023-07-20T06:03:18;2.58;;;0.90;;
78858;SDS011;68210;52.032;4.634;2023-07-20T06:05:21;3.30;;;0.73;;
78858;SDS011;68210;52.032;4.634;2023-07-20T06:07:23;1.95;;;0.73;;
78858;SDS011;68210;52.032;4.634;2023-07-20T06:09:24;3.17;;;0.73;;
78858;SDS011;68210;52.032;4.634;2023-07-20T06:11:24;3.40;;;1.05;;
78858;SDS011;68210;52.032;4.634;2023-07-20T06:13:25;1.80;;;0.73;;
78858;SDS011;68210;52.032;4.634;2023-07-20T06:15:27;2.58;;;0.93;;
78858;SDS011;68210;52.032;4.634;2023-07-20T06:17:29;1.95;;;0.75;;
78858;SDS011;68210;52.032;4.634;2023-07-20T06:19:29;1.75;;;0.82;;
78858;SDS011;68210;52.032;4.634;2023-07-20T06:21:30;0.52;;;0.52;;
78858;SDS011;68210;52.032;4.634;2023-07-20T06:23:30;2.72;;;0.70;;
78858;SDS011;68210;52.032;4.634;2023-07-20T06:25:31;1.75;;;0.80;;
78858;SDS011;68210;52.032;4.634;2023-07-20T06:27:31;1.85;;;0.77;;
78858;SDS011;68210;52.032;4.634;2023-07-20T06:29:31;3.45;;;0.93;;
78858;SDS011;68210;52.032;4.634;2023-07-20T06:31:32;2.65;;;0.80;;
78858;SDS011;68210;52.032;4.634;2023-07-20T06:33:34;1.83;;;1.00;;
78858;SDS011;68210;52.032;4.634;2023-07-20T06:35:37;2.15;;;0.70;;
78858;SDS011;68210;52.032;4.634;2023-07-20T06:37:37;1.10;;;0.75;;
78858;SDS011;68210;52.032;4.634;2023-07-20T06:39:38;1.63;;;0.63;;
78858;SDS011;68210;52.032;4.634;2023-07-20T06:41:38;1.20;;;0.65;;
78858;SDS011;68210;52.032;4.634;2023-07-20T06:43:39;1.85;;;0.93;;
78858;SDS011;68210;52.032;4.634;2023-07-20T06:45:39;1.65;;;0.90;;
78858;SDS011;68210;52.032;4.634;2023-07-20T06:47:40;4.15;;;0.80;;
78858;SDS011;68210;52.032;4.634;2023-07-20T06:49:40;2.17;;;0.82;;
78858;SDS011;68210;52.032;4.634;2023-07-20T06:51:41;0.90;;;0.80;;
78858;SDS011;68210;52.032;4.634;2023-07-20T06:53:41;2.10;;;0.90;;
78858;SDS011;68210;52.032;4.634;2023-07-20T06:55:42;2.63;;;0.93;;
78858;SDS011;68210;52.032;4.634;2023-07-20T06:57:43;1.75;;;0.75;;
78858;SDS011;68210;52.032;4.634;2023-07-20T06:59:43;2.13;;;0.90;;
78858;SDS011;68210;52.032;4.634;2023-07-20T07:01:43;3.60;;;0.90;;
78858;SDS011;68210;52.032;4.634;2023-07-20T07:03:44;1.38;;;0.93;;
78858;SDS011;68210;52.032;4.634;2023-07-20T07:05:45;1.65;;;1.23;;
78858;SDS011;68210;52.032;4.634;2023-07-20T07:07:45;1.70;;;0.88;;
78858;SDS011;68210;52.032;4.634;2023-07-20T07:09:46;1.30;;;0.73;;
78858;SDS011;68210;52.032;4.634;2023-07-20T07:11:46;1.55;;;1.20;;
78858;SDS011;68210;52.032;4.634;2023-07-20T07:13:47;1.85;;;1.05;;
78858;SDS011;68210;52.032;4.634;2023-07-20T07:15:50;2.40;;;1.05;;
78858;SDS011;68210;52.032;4.634;2023-07-20T07:17:51;1.65;;;0.80;;
78858;SDS011;68210;52.032;4.634;2023-07-20T07:19:52;2.47;;;1.10;;
78858;SDS011;68210;52.032;4.634;2023-07-20T07:21:54;3.00;;;1.33;;
78858;SDS011;68210;52.032;4.634;2023-07-20T07:23:55;1.17;;;0.70;;
78858;SDS011;68210;52.032;4.634;2023-07-20T07:27:57;3.27;;;0.90;;
78858;SDS011;68210;52.032;4.634;2023-07-20T07:29:58;1.35;;;0.80;;
78858;SDS011;68210;52.032;4.634;2023-07-20T07:31:58;1.15;;;0.82;;
78858;SDS011;68210;52.032;4.634;2023-07-20T07:33:58;2.78;;;0.88;;
78858;SDS011;68210;52.032;4.634;2023-07-20T07:35:59;0.93;;;0.70;;
78858;SDS011;68210;52.032;4.634;2023-07-20T07:37:59;1.80;;;0.70;;
78858;SDS011;68210;52.032;4.634;2023-07-20T07:40:00;3.17;;;1.52;;
78858;SDS011;68210;52.032;4.634;2023-07-20T07:42:00;1.27;;;0.70;;
78858;SDS011;68210;52.032;4.634;2023-07-20T07:44:00;2.05;;;0.60;;
78858;SDS011;68210;52.032;4.634;2023-07-20T07:46:01;0.85;;;0.70;;
78858;SDS011;68210;52.032;4.634;2023-07-20T07:48:01;1.13;;;0.70;;
78858;SDS011;68210;52.032;4.634;2023-07-20T07:50:02;3.05;;;1.10;;
78858;SDS011;68210;52.032;4.634;2023-07-20T07:52:03;2.92;;;0.98;;
78858;SDS011;68210;52.032;4.634;2023-07-20T07:54:04;3.33;;;0.70;;
78858;SDS011;68210;52.032;4.634;2023-07-20T07:56:06;1.77;;;1.00;;
78858;SDS011;68210;52.032;4.634;2023-07-20T07:58:07;2.45;;;0.80;;
78858;SDS011;68210;52.032;4.634;2023-07-20T08:00:08;1.75;;;0.90;;
78858;SDS011;68210;52.032;4.634;2023-07-20T08:02:14;1.75;;;0.70;;
78858;SDS011;68210;52.032;4.634;2023-07-20T08:04:14;1.58;;;0.88;;
78858;SDS011;68210;52.032;4.634;2023-07-20T08:06:15;1.40;;;0.90;;
78858;SDS011;68210;52.032;4.634;2023-07-20T08:08:15;1.30;;;0.70;;
78858;SDS011;68210;52.032;4.634;2023-07-20T08:10:17;2.00;;;0.85;;
78858;SDS011;68210;52.032;4.634;2023-07-20T08:12:17;2.80;;;0.85;;
78858;SDS011;68210;52.032;4.634;2023-07-20T08:14:20;1.02;;;0.70;;
78858;SDS011;68210;52.032;4.634;2023-07-20T08:16:20;1.83;;;1.15;;
78858;SDS011;68210;52.032;4.634;2023-07-20T08:18:21;1.90;;;1.13;;
78858;SDS011;68210;52.032;4.634;2023-07-20T08:20:21;1.58;;;1.10;;
78858;SDS011;68210;52.032;4.634;2023-07-20T08:22:26;2.00;;;1.02;;
78858;SDS011;68210;52.032;4.634;2023-07-20T08:24:26;2.08;;;0.90;;
78858;SDS011;68210;52.032;4.634;2023-07-20T08:26:27;2.33;;;1.10;;
78858;SDS011;68210;52.032;4.634;2023-07-20T08:28:27;3.60;;;2.08;;
78858;SDS011;68210;52.032;4.634;2023-07-20T08:30:38;3.63;;;1.30;;
78858;SDS011;68210;52.032;4.634;2023-07-20T08:32:42;1.90;;;1.20;;
78858;SDS011;68210;52.032;4.634;2023-07-20T08:34:43;1.92;;;1.20;;
78858;SDS011;68210;52.032;4.634;2023-07-20T08:36:43;2.67;;;1.20;;
78858;SDS011;68210;52.032;4.634;2023-07-20T08:38:44;2.33;;;1.60;;
78858;SDS011;68210;52.032;4.634;2023-07-20T08:40:45;2.47;;;1.10;;
78858;SDS011;68210;52.032;4.634;2023-07-20T08:42:46;2.00;;;1.20;;
78858;SDS011;68210;52.032;4.634;2023-07-20T08:44:46;2.30;;;0.93;;
78858;SDS011;68210;52.032;4.634;2023-07-20T08:46:48;2.00;;;1.10;;
78858;SDS011;68210;52.032;4.634;2023-07-20T08:48:49;1.70;;;1.10;;
78858;SDS011;68210;52.032;4.634;2023-07-20T08:50:50;1.67;;;1.15;;
78858;SDS011;68210;52.032;4.634;2023-07-20T08:52:56;1.60;;;1.00;;
78858;SDS011;68210;52.032;4.634;2023-07-20T08:54:58;2.78;;;0.70;;
78858;SDS011;68210;52.032;4.634;2023-07-20T08:57:02;1.48;;;0.90;;
78858;SDS011;68210;52.032;4.634;2023-07-20T08:59:04;1.60;;;0.80;;
78858;SDS011;68210;52.032;4.634;2023-07-20T09:01:05;1.85;;;0.90;;
78858;SDS011;68210;52.032;4.634;2023-07-20T09:03:05;1.42;;;0.88;;
78858;SDS011;68210;52.032;4.634;2023-07-20T09:05:06;1.20;;;0.73;;
78858;SDS011;68210;52.032;4.634;2023-07-20T09:07:10;2.10;;;0.82;;
78858;SDS011;68210;52.032;4.634;2023-07-20T09:09:13;2.17;;;1.00;;
78858;SDS011;68210;52.032;4.634;2023-07-20T09:11:13;3.70;;;0.93;;
78858;SDS011;68210;52.032;4.634;2023-07-20T09:13:15;2.92;;;0.88;;
78858;SDS011;68210;52.032;4.634;2023-07-20T09:15:16;0.85;;;0.73;;
78858;SDS011;68210;52.032;4.634;2023-07-20T09:17:17;1.70;;;0.90;;
78858;SDS011;68210;52.032;4.634;2023-07-20T09:19:19;2.53;;;0.93;;
78858;SDS011;68210;52.032;4.634;2023-07-20T09:21:20;2.30;;;0.90;;
78858;SDS011;68210;52.032;4.634;2023-07-20T09:26:11;2.42;;;0.90;;
78858;SDS011;68210;52.032;4.634;2023-07-20T09:28:13;1.20;;;0.80;;
78858;SDS011;68210;52.032;4.634;2023-07-20T09:30:15;2.60;;;1.00;;
78858;SDS011;68210;52.032;4.634;2023-07-20T09:32:19;1.20;;;0.85;;
78858;SDS011;68210;52.032;4.634;2023-07-20T09:34:21;2.78;;;1.02;;
78858;SDS011;68210;52.032;4.634;2023-07-20T09:36:21;2.08;;;0.80;;
78858;SDS011;68210;52.032;4.634;2023-07-20T09:38:22;1.13;;;0.80;;
78858;SDS011;68210;52.032;4.634;2023-07-20T09:40:23;1.30;;;0.90;;
78858;SDS011;68210;52.032;4.634;2023-07-20T09:42:25;1.83;;;0.93;;
78858;SDS011;68210;52.032;4.634;2023-07-20T09:44:27;1.60;;;1.00;;
78858;SDS011;68210;52.032;4.634;2023-07-20T09:46:40;2.25;;;1.00;;
78858;SDS011;68210;52.032;4.634;2023-07-20T09:48:41;3.10;;;0.70;;
78858;SDS011;68210;52.032;4.634;2023-07-20T09:50:53;2.83;;;1.20;;
78858;SDS011;68210;52.032;4.634;2023-07-20T09:52:55;2.35;;;0.85;;
78858;SDS011;68210;52.032;4.634;2023-07-20T09:54:57;2.83;;;1.20;;
78858;SDS011;68210;52.032;4.634;2023-07-20T09:56:58;1.05;;;0.85;;
78858;SDS011;68210;52.032;4.634;2023-07-20T09:59:00;2.00;;;1.00;;
78858;SDS011;68210;52.032;4.634;2023-07-20T10:01:00;1.50;;;0.90;;
78858;SDS011;68210;52.032;4.634;2023-07-20T10:03:06;1.67;;;0.75;;
78858;SDS011;68210;52.032;4.634;2023-07-20T10:05:07;1.85;;;0.73;;
78858;SDS011;68210;52.032;4.634;2023-07-20T10:07:10;1.90;;;0.88;;
78858;SDS011;68210;52.032;4.634;2023-07-20T10:09:12;4.47;;;1.00;;
78858;SDS011;68210;52.032;4.634;2023-07-20T10:11:15;1.35;;;0.88;;
78858;SDS011;68210;52.032;4.634;2023-07-20T10:13:17;1.63;;;0.82;;
78858;SDS011;68210;52.032;4.634;2023-07-20T10:15:24;2.63;;;1.05;;
78858;SDS011;68210;52.032;4.634;2023-07-20T10:17:30;0.95;;;0.82;;
78858;SDS011;68210;52.032;4.634;2023-07-20T10:19:33;2.70;;;0.77;;
78858;SDS011;68210;52.032;4.634;2023-07-20T10:21:40;1.38;;;0.80;;
78858;SDS011;68210;52.032;4.634;2023-07-20T10:23:42;1.50;;;0.85;;
78858;SDS011;68210;52.032;4.634;2023-07-20T10:25:43;1.85;;;0.75;;
78858;SDS011;68210;52.032;4.634;2023-07-20T10:29:46;1.92;;;0.68;;
78858;SDS011;68210;52.032;4.634;2023-07-20T10:31:48;1.40;;;0.82;;
78858;SDS011;68210;52.032;4.634;2023-07-20T10:33:49;2.70;;;0.60;;
78858;SDS011;68210;52.032;4.634;2023-07-20T10:35:54;1.58;;;0.70;;
78858;SDS011;68210;52.032;4.634;2023-07-20T10:38:02;4.50;;;0.82;;
78858;SDS011;68210;52.032;4.634;2023-07-20T10:42:28;3.03;;;0.88;;
78858;SDS011;68210;52.032;4.634;2023-07-20T10:44:33;1.27;;;0.82;;
78858;SDS011;68210;52.032;4.634;2023-07-20T10:46:43;3.35;;;0.90;;
78858;SDS011;68210;52.032;4.634;2023-07-20T10:49:01;3.95;;;0.90;;
78858;SDS011;68210;52.032;4.634;2023-07-20T10:51:12;1.70;;;0.70;;
78858;SDS011;68210;52.032;4.634;2023-07-20T10:53:14;4.40;;;0.90;;
78858;SDS011;68210;52.032;4.634;2023-07-20T10:55:18;1.95;;;1.00;;
78858;SDS011;68210;52.032;4.634;2023-07-20T10:57:23;1.70;;;0.85;;
78858;SDS011;68210;52.032;4.634;2023-07-20T11:01:35;1.25;;;0.73;;
78858;SDS011;68210;52.032;4.634;2023-07-20T11:03:37;1.40;;;0.82;;
78858;SDS011;68210;52.032;4.634;2023-07-20T11:05:39;1.35;;;0.70;;
78858;SDS011;68210;52.032;4.634;2023-07-20T11:07:40;1.10;;;0.60;;
78858;SDS011;68210;52.032;4.634;2023-07-20T11:09:41;1.10;;;0.75;;
78858;SDS011;68210;52.032;4.634;2023-07-20T11:11:43;3.03;;;0.60;;
78858;SDS011;68210;52.032;4.634;2023-07-20T11:13:54;1.55;;;0.80;;
78858;SDS011;68210;52.032;4.634;2023-07-20T11:16:07;1.60;;;0.70;;
78858;SDS011;68210;52.032;4.634;2023-07-20T11:18:14;1.45;;;0.80;;
78858;SDS011;68210;52.032;4.634;2023-07-20T11:20:14;2.88;;;0.70;;
78858;SDS011;68210;52.032;4.634;2023-07-20T11:22:16;1.52;;;0.77;;
78858;SDS011;68210;52.032;4.634;2023-07-20T11:24:17;1.05;;;0.57;;
78858;SDS011;68210;52.032;4.634;2023-07-20T11:26:18;4.00;;;0.73;;
78858;SDS011;68210;52.032;4.634;2023-07-20T11:28:19;1.30;;;0.85;;
78858;SDS011;68210;52.032;4.634;2023-07-20T11:30:19;2.85;;;0.75;;
78858;SDS011;68210;52.032;4.634;2023-07-20T11:32:20;2.85;;;1.10;;
78858;SDS011;68210;52.032;4.634;2023-07-20T11:34:22;2.50;;;0.80;;
78858;SDS011;68210;52.032;4.634;2023-07-20T11:36:22;3.90;;;0.95;;
78858;SDS011;68210;52.032;4.634;2023-07-20T11:38:23;1.00;;;0.80;;
78858;SDS011;68210;52.032;4.634;2023-07-20T11:40:24;4.40;;;1.10;;
78858;SDS011;68210;52.032;4.634;2023-07-20T11:42:25;4.50;;;0.90;;
78858;SDS011;68210;52.032;4.634;2023-07-20T11:44:26;3.90;;;0.93;;
78858;SDS011;68210;52.032;4.634;2023-07-20T11:46:28;3.28;;;0.80;;
78858;SDS011;68210;52.032;4.634;2023-07-20T11:48:29;3.88;;;0.80;;
78858;SDS011;68210;52.032;4.634;2023-07-20T11:50:30;2.60;;;0.90;;
78858;SDS011;68210;52.032;4.634;2023-07-20T11:52:30;4.13;;;0.82;;
78858;SDS011;68210;52.032;4.634;2023-07-20T11:54:31;2.60;;;0.95;;
78858;SDS011;68210;52.032;4.634;2023-07-20T11:58:34;1.65;;;0.88;;
78858;SDS011;68210;52.032;4.634;2023-07-20T12:00:36;2.10;;;0.90;;
78858;SDS011;68210;52.032;4.634;2023-07-20T12:02:38;1.05;;;0.77;;
78858;SDS011;68210;52.032;4.634;2023-07-20T12:04:41;1.00;;;0.75;;
78858;SDS011;68210;52.032;4.634;2023-07-20T12:06:42;1.08;;;0.82;;
78858;SDS011;68210;52.032;4.634;2023-07-20T12:08:43;1.35;;;0.80;;
78858;SDS011;68210;52.032;4.634;2023-07-20T12:10:44;1.98;;;0.70;;
78858;SDS011;68210;52.032;4.634;2023-07-20T12:12:45;1.20;;;0.75;;
78858;SDS011;68210;52.032;4.634;2023-07-20T12:14:45;2.38;;;0.70;;
78858;SDS011;68210;52.032;4.634;2023-07-20T12:16:51;1.58;;;0.80;;
78858;SDS011;68210;52.032;4.634;2023-07-20T12:18:59;1.20;;;0.80;;
78858;SDS011;68210;52.032;4.634;2023-07-20T12:21:01;4.60;;;0.80;;
78858;SDS011;68210;52.032;4.634;2023-07-20T12:23:07;2.03;;;1.08;;
78858;SDS011;68210;52.032;4.634;2023-07-20T12:25:09;1.10;;;0.70;;
78858;SDS011;68210;52.032;4.634;2023-07-20T12:27:12;1.63;;;0.73;;
78858;SDS011;68210;52.032;4.634;2023-07-20T12:29:13;2.67;;;0.77;;
78858;SDS011;68210;52.032;4.634;2023-07-20T12:31:14;1.70;;;0.63;;
78858;SDS011;68210;52.032;4.634;2023-07-20T12:33:14;1.55;;;0.77;;
78858;SDS011;68210;52.032;4.634;2023-07-20T12:35:15;0.77;;;0.60;;
78858;SDS011;68210;52.032;4.634;2023-07-20T12:37:17;1.33;;;0.90;;
78858;SDS011;68210;52.032;4.634;2023-07-20T12:39:18;1.63;;;0.73;;